createdAt,value
2023-04-24T00:01:26.122Z,6.53
2023-04-24T00:03:53.024Z,6.47
2023-04-24T00:06:19.857Z,7.13
2023-04-24T00:08:46.511Z,10.80
2023-04-24T00:11:13.244Z,8.50
2023-04-24T00:13:40.730Z,8.05
2023-04-24T00:16:07.626Z,8.60
2023-04-24T00:18:34.283Z,7.80
2023-04-24T00:21:01.222Z,8.43
2023-04-24T00:23:28.264Z,6.88
2023-04-24T00:25:54.939Z,8.45
2023-04-24T00:28:21.617Z,7.40
2023-04-24T00:30:48.264Z,8.60
2023-04-24T00:33:15.806Z,6.60
2023-04-24T00:35:42.625Z,10.07
2023-04-24T00:38:09.499Z,7.35
2023-04-24T00:40:36.292Z,6.53
2023-04-24T00:43:03.104Z,8.45
2023-04-24T00:45:32.241Z,9.15
2023-04-24T00:47:59.379Z,8.48
2023-04-24T00:50:27.440Z,6.45
2023-04-24T00:52:54.411Z,8.55
2023-04-24T00:55:21.298Z,8.45
2023-04-24T00:57:49.680Z,6.70
2023-04-24T01:00:17.680Z,7.80
2023-04-24T01:02:46.299Z,7.90
2023-04-24T01:05:14.537Z,7.60
2023-04-24T01:07:45.153Z,6.80
2023-04-24T01:10:13.761Z,7.88
2023-04-24T01:12:40.792Z,8.27
2023-04-24T01:15:08.205Z,7.18
2023-04-24T01:17:34.896Z,7.90
2023-04-24T01:20:02.002Z,6.32
2023-04-24T01:22:28.776Z,8.45
2023-04-24T01:24:55.740Z,9.23
2023-04-24T01:27:22.536Z,6.60
2023-04-24T01:29:50.289Z,9.30
2023-04-24T01:32:17.152Z,7.28
2023-04-24T01:34:45.646Z,8.40
2023-04-24T01:37:12.536Z,6.68
2023-04-24T01:39:39.386Z,7.30
2023-04-24T01:42:06.936Z,6.00
2023-04-24T01:44:34.627Z,7.60
2023-04-24T01:47:02.500Z,5.85
2023-04-24T01:49:29.205Z,7.63
2023-04-24T01:51:55.887Z,7.32
2023-04-24T01:54:22.697Z,6.53
2023-04-24T01:56:49.789Z,8.07
2023-04-24T01:59:17.995Z,5.72
2023-04-24T02:01:44.781Z,6.70
2023-04-24T02:04:11.792Z,5.05
2023-04-24T02:06:38.593Z,6.70
2023-04-24T02:09:05.277Z,6.78
2023-04-24T02:11:31.999Z,5.45
2023-04-24T02:13:58.970Z,5.13
2023-04-24T02:16:26.124Z,4.70
2023-04-24T02:18:52.832Z,4.90
2023-04-24T02:21:19.495Z,5.70
2023-04-24T02:23:46.181Z,4.20
2023-04-24T02:26:12.924Z,3.25
2023-04-24T02:28:39.701Z,3.92
2023-04-24T02:31:07.211Z,3.63
2023-04-24T02:33:34.417Z,3.50
2023-04-24T02:36:01.340Z,3.40
2023-04-24T02:38:28.283Z,3.72
2023-04-24T02:40:54.948Z,2.50
2023-04-24T02:43:21.855Z,3.42
2023-04-24T02:45:49.834Z,2.58
2023-04-24T02:48:16.593Z,3.10
2023-04-24T02:50:43.401Z,2.90
2023-04-24T02:53:10.039Z,3.00
2023-04-24T02:55:36.998Z,3.28
2023-04-24T02:58:03.658Z,2.20
2023-04-24T03:00:30.903Z,2.20
2023-04-24T03:02:57.949Z,3.45
2023-04-24T03:05:24.846Z,2.40
2023-04-24T03:07:53.576Z,2.85
2023-04-24T03:10:20.469Z,3.00
2023-04-24T03:12:47.325Z,2.80
2023-04-24T03:15:13.977Z,3.65
2023-04-24T03:17:40.640Z,3.60
2023-04-24T03:20:09.284Z,4.30
2023-04-24T03:22:36.181Z,3.50
2023-04-24T03:25:03.134Z,2.90
2023-04-24T03:27:29.793Z,2.47
2023-04-24T03:29:56.975Z,3.50
2023-04-24T03:32:24.149Z,3.78
2023-04-24T03:34:51.123Z,3.15
2023-04-24T03:37:17.948Z,7.57
2023-04-24T03:39:45.170Z,5.15
2023-04-24T03:42:12.341Z,2.80
2023-04-24T03:44:38.961Z,3.53
2023-04-24T03:47:05.795Z,3.40
2023-04-24T03:49:32.655Z,3.92
2023-04-24T03:51:59.312Z,2.65
2023-04-24T03:54:27.112Z,3.00
2023-04-24T03:56:53.852Z,5.97
2023-04-24T03:59:20.465Z,2.83
2023-04-24T04:01:47.351Z,3.33
2023-04-24T04:04:14.259Z,3.10
2023-04-24T04:06:41.089Z,4.10
2023-04-24T04:09:08.248Z,2.70
2023-04-24T04:11:36.455Z,2.65
2023-04-24T04:14:04.415Z,3.75
2023-04-24T04:16:31.128Z,3.55
2023-04-24T04:18:57.872Z,2.58
2023-04-24T04:21:24.685Z,3.42
2023-04-24T04:23:51.718Z,3.35
2023-04-24T04:26:20.098Z,3.67
2023-04-24T04:28:46.759Z,4.65
2023-04-24T04:31:14.283Z,3.65
2023-04-24T04:33:41.254Z,3.50
2023-04-24T04:36:08.149Z,2.83
2023-04-24T04:38:36.455Z,3.25
2023-04-24T04:41:05.752Z,2.67
2023-04-24T04:43:33.708Z,2.20
2023-04-24T04:46:01.751Z,2.72
2023-04-24T04:48:29.564Z,2.10
2023-04-24T04:50:56.335Z,2.78
2023-04-24T04:53:22.897Z,2.85
2023-04-24T04:55:56.804Z,2.47
2023-04-24T04:58:25.432Z,1.98
2023-04-24T05:00:53.205Z,2.47
2023-04-24T05:03:21.401Z,2.60
2023-04-24T05:05:48.419Z,2.33
2023-04-24T05:10:44.672Z,2.60
2023-04-24T05:13:14.067Z,2.15
2023-04-24T05:15:40.998Z,2.75
2023-04-24T05:18:07.703Z,1.70
2023-04-24T05:20:34.385Z,4.78
2023-04-24T05:23:00.997Z,1.65
2023-04-24T05:25:27.696Z,1.95
2023-04-24T05:27:57.281Z,1.95
2023-04-24T05:30:23.969Z,1.92
2023-04-24T05:32:50.612Z,1.70
2023-04-24T05:35:17.759Z,5.80
2023-04-24T05:37:44.335Z,2.13
2023-04-24T05:40:11.993Z,3.00
2023-04-24T05:42:39.373Z,2.03
2023-04-24T05:45:06.691Z,3.28
2023-04-24T05:47:33.312Z,3.05
2023-04-24T05:49:59.928Z,1.92
2023-04-24T05:52:26.671Z,2.42
2023-04-24T05:54:54.462Z,2.40
2023-04-24T05:57:21.105Z,2.05
2023-04-24T05:59:49.345Z,2.33
2023-04-24T06:02:16.031Z,2.63
2023-04-24T06:04:44.223Z,1.90
2023-04-24T06:07:12.093Z,1.90
2023-04-24T06:09:38.706Z,2.92
2023-04-24T06:12:05.452Z,2.10
2023-04-24T06:14:32.267Z,2.13
2023-04-24T06:16:59.017Z,3.55
2023-04-24T06:19:25.735Z,4.10
2023-04-24T06:21:53.368Z,1.90
2023-04-24T06:24:20.020Z,1.98
2023-04-24T06:26:51.907Z,2.90
2023-04-24T06:29:20.364Z,2.22
2023-04-24T06:31:49.508Z,1.92
2023-04-24T06:34:17.827Z,2.63
2023-04-24T06:36:48.105Z,2.25
2023-04-24T06:39:17.384Z,2.28
2023-04-24T06:41:50.731Z,2.83
2023-04-24T06:44:17.766Z,3.35
2023-04-24T06:46:44.673Z,2.72
2023-04-24T06:49:11.477Z,1.73
2023-04-24T06:51:38.117Z,2.60
2023-04-24T06:54:04.758Z,1.70
2023-04-24T06:56:32.090Z,2.65
2023-04-24T06:58:59.071Z,2.72
2023-04-24T07:01:25.806Z,4.40
2023-04-24T07:03:53.339Z,2.38
2023-04-24T07:06:22.341Z,2.80
2023-04-24T07:08:51.080Z,2.65
2023-04-24T07:11:17.741Z,3.28
2023-04-24T07:13:45.104Z,2.28
2023-04-24T07:16:12.055Z,2.20
2023-04-24T07:18:42.606Z,3.92
2023-04-24T07:21:09.214Z,2.20
2023-04-24T07:23:35.814Z,3.67
2023-04-24T07:26:02.582Z,4.88
2023-04-24T07:28:32.031Z,8.35
2023-04-24T07:31:01.499Z,3.75
2023-04-24T07:33:28.298Z,4.00
2023-04-24T07:35:55.073Z,7.85
2023-04-24T07:38:24.407Z,3.80
2023-04-24T07:40:51.034Z,4.90
2023-04-24T07:43:17.659Z,4.20
2023-04-24T07:45:44.651Z,5.93
2023-04-24T07:48:11.649Z,5.65
2023-04-24T07:50:38.320Z,4.43
2023-04-24T07:53:04.956Z,5.20
2023-04-24T07:55:32.787Z,5.68
2023-04-24T07:58:01.527Z,5.30
2023-04-24T08:00:28.192Z,4.72
2023-04-24T08:02:54.890Z,5.70
2023-04-24T08:05:24.072Z,6.55
2023-04-24T08:07:52.932Z,8.18
2023-04-24T08:10:19.844Z,6.53
2023-04-24T08:12:51.408Z,4.88
2023-04-24T08:15:18.364Z,6.75
2023-04-24T08:17:52.185Z,4.68
2023-04-24T08:20:20.692Z,6.80
2023-04-24T08:22:51.988Z,7.60
2023-04-24T08:25:20.013Z,7.82
2023-04-24T08:27:46.892Z,7.38
2023-04-24T08:30:15.563Z,7.05
2023-04-24T08:32:42.716Z,5.35
2023-04-24T08:35:13.123Z,4.90
2023-04-24T08:37:42.147Z,3.95
2023-04-24T08:40:16.608Z,5.32
2023-04-24T08:42:54.112Z,6.78
2023-04-24T08:45:21.316Z,3.78
2023-04-24T08:47:51.845Z,4.70
2023-04-24T08:50:18.517Z,6.22
2023-04-24T08:52:58.232Z,5.47
2023-04-24T08:55:25.940Z,5.50
2023-04-24T08:57:56.895Z,5.80
2023-04-24T09:00:23.606Z,6.68
2023-04-24T09:02:57.280Z,5.70
2023-04-24T09:05:28.552Z,6.10
2023-04-24T09:07:59.797Z,6.43
2023-04-24T09:10:27.382Z,6.60
2023-04-24T09:13:14.333Z,6.57
2023-04-24T09:15:43.125Z,6.22
2023-04-24T09:18:12.359Z,6.63
2023-04-24T09:20:58.190Z,6.93
2023-04-24T09:23:27.851Z,8.38
2023-04-24T09:25:58.916Z,11.20
2023-04-24T09:28:35.557Z,7.40
2023-04-24T09:31:19.187Z,7.93
2023-04-24T09:33:55.788Z,8.18
2023-04-24T09:36:39.810Z,8.52
2023-04-24T09:39:16.635Z,8.52
2023-04-24T09:41:56.581Z,9.50
2023-04-24T09:44:27.063Z,9.48
2023-04-24T09:46:55.815Z,8.48
2023-04-24T09:49:34.242Z,7.63
2023-04-24T09:52:09.052Z,6.03
2023-04-24T09:54:37.669Z,9.43
2023-04-24T09:57:05.803Z,7.70
2023-04-24T09:59:32.431Z,8.45
2023-04-24T10:02:00.683Z,11.25
2023-04-24T10:04:29.178Z,8.68
2023-04-24T10:07:00.416Z,8.70
2023-04-24T10:09:27.901Z,8.63
2023-04-24T10:11:55.830Z,8.32
2023-04-24T10:14:25.705Z,8.32
2023-04-24T10:16:57.593Z,10.05
2023-04-24T10:19:27.038Z,8.77
2023-04-24T10:21:57.365Z,10.73
2023-04-24T10:24:23.977Z,10.82
2023-04-24T10:26:52.915Z,9.60
2023-04-24T10:29:20.665Z,11.07
2023-04-24T10:31:49.696Z,9.63
2023-04-24T10:34:18.876Z,10.05
2023-04-24T10:36:57.954Z,10.82
2023-04-24T10:39:27.190Z,9.38
2023-04-24T10:41:57.410Z,11.25
2023-04-24T10:44:24.441Z,10.55
2023-04-24T10:46:57.405Z,11.30
2023-04-24T10:49:32.678Z,11.20
2023-04-24T10:52:07.985Z,13.57
2023-04-24T10:54:44.142Z,14.75
2023-04-24T10:57:27.207Z,15.07
2023-04-24T11:00:16.220Z,13.55
2023-04-24T11:02:50.116Z,13.05
2023-04-24T11:05:18.642Z,13.90
2023-04-24T11:08:14.974Z,15.25
2023-04-24T11:10:48.723Z,12.95
2023-04-24T11:13:17.161Z,12.30
2023-04-24T11:15:44.179Z,13.85
2023-04-24T11:18:18.454Z,14.57
2023-04-24T11:20:45.780Z,13.23
2023-04-24T11:23:14.773Z,13.38
2023-04-24T11:25:42.756Z,11.00
2023-04-24T11:28:17.123Z,9.88
2023-04-24T11:30:43.769Z,15.50
2023-04-24T11:33:10.565Z,12.73
2023-04-24T11:35:41.314Z,12.57
2023-04-24T11:38:22.690Z,17.63
2023-04-24T11:40:50.630Z,14.10
2023-04-24T11:43:20.266Z,13.07
2023-04-24T11:45:49.769Z,11.88
2023-04-24T11:48:22.805Z,15.30
2023-04-24T11:50:49.930Z,16.27
2023-04-24T11:53:16.702Z,16.08
2023-04-24T11:55:43.372Z,13.98
2023-04-24T11:58:10.722Z,14.75
2023-04-24T12:00:37.705Z,13.32
2023-04-24T12:03:12.539Z,14.20
2023-04-24T12:05:40.525Z,14.30
2023-04-24T12:08:09.078Z,11.57
2023-04-24T12:10:36.109Z,14.95
2023-04-24T12:13:03.004Z,12.48
2023-04-24T12:15:30.128Z,10.45
2023-04-24T12:17:57.566Z,9.25
2023-04-24T12:20:35.696Z,8.68
2023-04-24T12:23:02.825Z,9.90
2023-04-24T12:25:36.171Z,10.13
2023-04-24T12:28:05.875Z,10.63
2023-04-24T12:30:34.679Z,9.93
2023-04-24T12:33:01.874Z,11.25
2023-04-24T12:35:32.818Z,9.45
2023-04-24T12:38:17.477Z,11.98
2023-04-24T12:40:44.533Z,9.57
2023-04-24T12:43:21.500Z,10.38
2023-04-24T12:45:48.989Z,8.73
2023-04-24T12:48:15.747Z,8.38
2023-04-24T12:50:45.430Z,9.57
2023-04-24T12:53:12.981Z,12.52
2023-04-24T12:55:42.295Z,11.23
2023-04-24T12:58:09.175Z,9.80
2023-04-24T13:00:37.899Z,10.30
2023-04-24T13:03:07.369Z,10.38
2023-04-24T13:05:34.061Z,9.38
2023-04-24T13:08:00.848Z,8.73
2023-04-24T13:10:27.442Z,10.05
2023-04-24T13:12:54.132Z,11.80
2023-04-24T13:15:20.994Z,9.00
2023-04-24T13:17:49.404Z,9.68
2023-04-24T13:20:16.075Z,9.38
2023-04-24T13:22:42.663Z,10.15
2023-04-24T13:25:10.055Z,9.90
2023-04-24T13:27:36.858Z,9.80
2023-04-24T13:30:05.179Z,8.30
2023-04-24T13:32:32.937Z,10.90
2023-04-24T13:35:00.421Z,10.05
2023-04-24T13:37:29.018Z,10.50
2023-04-24T13:39:57.351Z,10.40
2023-04-24T13:42:24.053Z,11.85
2023-04-24T13:44:51.907Z,10.38
2023-04-24T13:47:20.489Z,11.00
2023-04-24T13:49:47.045Z,9.38
2023-04-24T13:52:13.696Z,10.60
2023-04-24T13:54:40.305Z,11.30
2023-04-24T13:57:06.945Z,10.60
2023-04-24T13:59:33.752Z,9.75
2023-04-24T14:02:00.453Z,11.00
2023-04-24T14:04:29.025Z,11.57
2023-04-24T14:06:55.886Z,10.43
2023-04-24T14:09:23.782Z,10.95
2023-04-24T14:11:52.281Z,10.45
2023-04-24T14:14:18.911Z,12.13
2023-04-24T14:16:45.507Z,10.77
2023-04-24T14:19:13.478Z,11.10
2023-04-24T14:21:40.306Z,10.20
2023-04-24T14:24:08.980Z,11.15
2023-04-24T14:26:35.853Z,11.63
2023-04-24T14:31:32.052Z,11.13
2023-04-24T14:33:58.714Z,9.35
2023-04-24T14:36:25.327Z,9.43
2023-04-24T14:38:51.950Z,10.25
2023-04-24T14:41:19.944Z,8.63
2023-04-24T14:43:46.738Z,6.70
2023-04-24T14:46:13.576Z,9.70
2023-04-24T14:48:40.386Z,8.43
2023-04-24T14:51:07.218Z,7.63
2023-04-24T14:53:34.919Z,8.07
2023-04-24T14:56:01.474Z,7.95
2023-04-24T14:58:28.126Z,8.02
2023-04-24T15:00:57.250Z,7.32
2023-04-24T15:03:26.972Z,7.60
2023-04-24T15:05:53.809Z,7.80
2023-04-24T15:08:20.523Z,9.05
2023-04-24T15:10:47.938Z,9.15
2023-04-24T15:13:14.691Z,9.48
2023-04-24T15:15:43.276Z,8.05
2023-04-24T15:18:12.452Z,7.32
2023-04-24T15:20:44.112Z,4.68
2023-04-24T15:23:11.287Z,5.63
2023-04-24T15:25:40.077Z,5.28
2023-04-24T15:28:07.118Z,4.28
2023-04-24T15:30:37.786Z,3.72
2023-04-24T15:33:04.531Z,3.35
2023-04-24T15:35:31.296Z,3.85
2023-04-24T15:37:58.061Z,4.10
2023-04-24T15:40:27.073Z,4.78
2023-04-24T15:42:53.779Z,4.30
2023-04-24T15:45:20.648Z,6.18
2023-04-24T15:47:47.612Z,6.72
2023-04-24T15:50:16.363Z,4.55
2023-04-24T15:52:44.124Z,6.90
2023-04-24T15:55:11.313Z,6.40
2023-04-24T15:57:38.278Z,7.07
2023-04-24T16:00:10.615Z,8.57
2023-04-24T16:02:37.339Z,11.30
2023-04-24T16:05:06.453Z,9.93
2023-04-24T16:07:34.397Z,9.38
2023-04-24T16:10:02.141Z,9.45
2023-04-24T16:12:28.907Z,12.40
2023-04-24T16:14:55.597Z,12.35
2023-04-24T16:17:22.277Z,10.23
2023-04-24T16:19:48.892Z,14.25
2023-04-24T16:22:15.566Z,14.65
2023-04-24T16:24:45.498Z,11.73
2023-04-24T16:27:12.247Z,15.55
2023-04-24T16:29:38.887Z,10.15
2023-04-24T16:32:07.677Z,11.13
2023-04-24T16:34:34.554Z,9.30
2023-04-24T16:37:03.330Z,12.73
2023-04-24T16:39:29.952Z,10.57
2023-04-24T16:41:59.777Z,7.22
2023-04-24T16:44:27.369Z,7.38
2023-04-24T16:46:54.100Z,6.60
2023-04-24T16:49:20.767Z,6.57
2023-04-24T16:51:51.582Z,6.07
2023-04-24T16:54:19.730Z,5.90
2023-04-24T16:56:46.300Z,7.40
2023-04-24T16:59:13.173Z,5.72
2023-04-24T17:01:40.168Z,6.90
2023-04-24T17:04:06.960Z,8.98
2023-04-24T17:06:35.266Z,7.53
2023-04-24T17:09:02.485Z,7.38
2023-04-24T17:11:31.100Z,9.20
2023-04-24T17:13:59.553Z,8.32
2023-04-24T17:16:26.595Z,10.32
2023-04-24T17:18:53.257Z,11.98
2023-04-24T17:21:19.863Z,10.63
2023-04-24T17:23:47.085Z,10.52
2023-04-24T17:26:13.710Z,8.23
2023-04-24T17:28:42.369Z,14.27
2023-04-24T17:31:08.994Z,12.48
2023-04-24T17:33:38.362Z,13.65
2023-04-24T17:36:10.202Z,13.20
2023-04-24T17:38:37.668Z,11.63
2023-04-24T17:41:06.980Z,13.70
2023-04-24T17:43:36.384Z,8.68
2023-04-24T17:46:03.416Z,9.25
2023-04-24T17:48:30.234Z,8.85
2023-04-24T17:50:58.862Z,9.65
2023-04-24T17:53:25.418Z,11.68
2023-04-24T17:55:54.119Z,9.32
2023-04-24T17:58:22.055Z,10.77
2023-04-24T18:00:48.817Z,10.13
2023-04-24T18:03:16.991Z,8.10
2023-04-24T18:05:45.911Z,8.40
2023-04-24T18:08:12.523Z,9.35
2023-04-24T18:10:39.403Z,11.18
2023-04-24T18:13:05.991Z,8.57
2023-04-24T18:15:32.824Z,10.68
2023-04-24T18:17:59.564Z,9.88
2023-04-24T18:20:28.981Z,9.43
2023-04-24T18:22:56.335Z,8.85
2023-04-24T18:25:28.070Z,9.60
2023-04-24T18:28:03.249Z,7.18
2023-04-24T18:30:33.054Z,7.70
2023-04-24T18:32:59.868Z,5.97
2023-04-24T18:35:26.624Z,11.38
2023-04-24T18:37:54.660Z,11.27
2023-04-24T18:40:21.339Z,6.97
2023-04-24T18:42:48.845Z,11.43
2023-04-24T18:45:15.545Z,8.55
2023-04-24T18:47:42.903Z,10.10
2023-04-24T18:50:10.341Z,6.47
2023-04-24T18:52:37.038Z,5.15
2023-04-24T18:55:07.354Z,8.52
2023-04-24T18:57:36.146Z,6.07
2023-04-24T19:00:04.054Z,6.50
2023-04-24T19:02:34.892Z,5.72
2023-04-24T19:05:01.616Z,5.15
2023-04-24T19:07:29.295Z,5.70
2023-04-24T19:09:55.887Z,8.00
2023-04-24T19:12:25.794Z,6.07
2023-04-24T19:14:52.484Z,7.20
2023-04-24T19:17:24.999Z,4.13
2023-04-24T19:19:52.099Z,2.90
2023-04-24T19:22:22.430Z,4.57
2023-04-24T19:24:49.052Z,3.92
2023-04-24T19:27:19.021Z,5.32
2023-04-24T19:29:45.995Z,4.55
2023-04-24T19:32:14.461Z,3.22
2023-04-24T19:34:41.307Z,4.35
2023-04-24T19:37:10.405Z,6.10
2023-04-24T19:39:39.026Z,5.95
2023-04-24T19:42:08.367Z,3.70
2023-04-24T19:44:38.426Z,6.07
2023-04-24T19:47:05.182Z,3.72
2023-04-24T19:49:32.030Z,4.88
2023-04-24T19:51:58.647Z,4.88
2023-04-24T19:54:25.913Z,3.63
2023-04-24T19:56:52.562Z,4.32
2023-04-24T19:59:19.130Z,4.55
2023-04-24T20:01:45.904Z,4.57
2023-04-24T20:04:14.617Z,8.02
2023-04-24T20:06:41.304Z,7.18
2023-04-24T20:09:07.891Z,5.38
2023-04-24T20:11:34.581Z,4.75
2023-04-24T20:14:04.028Z,8.82
2023-04-24T20:16:31.246Z,6.20
2023-04-24T20:18:58.667Z,5.07
2023-04-24T20:21:25.353Z,5.85
2023-04-24T20:23:52.210Z,6.85
2023-04-24T20:26:18.921Z,8.50
2023-04-24T20:28:46.064Z,4.40
2023-04-24T20:31:12.838Z,5.13
2023-04-24T20:33:41.449Z,7.63
2023-04-24T20:36:09.501Z,5.28
2023-04-24T20:38:36.831Z,7.80
2023-04-24T20:41:03.802Z,6.05
2023-04-24T20:43:30.796Z,5.88
2023-04-24T20:46:00.368Z,5.53
2023-04-24T20:48:27.136Z,5.35
2023-04-24T20:50:54.153Z,6.00
2023-04-24T20:53:23.526Z,5.90
2023-04-24T20:55:50.712Z,4.15
2023-04-24T20:58:21.988Z,9.55
2023-04-24T21:00:48.764Z,6.93
2023-04-24T21:03:16.049Z,5.68
2023-04-24T21:05:42.873Z,6.22
2023-04-24T21:08:09.415Z,5.30
2023-04-24T21:10:36.529Z,5.78
2023-04-24T21:13:03.123Z,5.00
2023-04-24T21:15:30.893Z,5.18
2023-04-24T21:17:57.600Z,6.22
2023-04-24T21:20:24.345Z,4.38
2023-04-24T21:22:50.936Z,4.90
2023-04-24T21:25:17.631Z,11.68
2023-04-24T21:27:44.274Z,4.00
2023-04-24T21:30:12.782Z,7.97
2023-04-24T21:32:40.352Z,4.32
2023-04-24T21:35:07.347Z,8.07
2023-04-24T21:37:35.444Z,8.25
2023-04-24T21:40:04.604Z,7.35
2023-04-24T21:42:31.424Z,7.30
2023-04-24T21:44:58.361Z,8.95
2023-04-24T21:47:24.995Z,5.82
2023-04-24T21:49:51.925Z,7.70
2023-04-24T21:52:18.505Z,8.20
2023-04-24T21:54:47.055Z,8.30
2023-04-24T21:57:15.151Z,7.70
2023-04-24T21:59:42.106Z,7.55
2023-04-24T22:02:08.768Z,8.20
2023-04-24T22:04:35.611Z,12.18
2023-04-24T22:07:02.410Z,9.13
2023-04-24T22:09:29.030Z,9.75
2023-04-24T22:11:55.691Z,9.88
2023-04-24T22:14:22.321Z,6.85
2023-04-24T22:16:50.112Z,8.00
2023-04-24T22:19:16.716Z,10.70
2023-04-24T22:21:43.423Z,9.40
2023-04-24T22:24:10.208Z,5.20
2023-04-24T22:26:36.843Z,6.68
2023-04-24T22:29:03.422Z,7.10
2023-04-24T22:31:30.079Z,6.60
2023-04-24T22:33:56.675Z,6.28
2023-04-24T22:36:23.216Z,8.48
2023-04-24T22:38:49.789Z,7.85
2023-04-24T22:41:16.449Z,7.00
2023-04-24T22:43:43.029Z,10.05
2023-04-24T22:46:09.725Z,13.07
2023-04-24T22:48:36.409Z,8.57
2023-04-24T22:51:04.484Z,7.50
2023-04-24T22:53:31.127Z,7.60
2023-04-24T22:55:57.825Z,13.57
2023-04-24T22:58:25.188Z,8.98
2023-04-24T23:00:51.982Z,8.85
2023-04-24T23:03:18.771Z,7.95
2023-04-24T23:05:45.657Z,9.77
2023-04-24T23:08:12.269Z,9.65
2023-04-24T23:10:38.844Z,10.68
2023-04-24T23:13:06.084Z,7.72
2023-04-24T23:15:32.690Z,8.90
2023-04-24T23:17:59.318Z,13.32
2023-04-24T23:20:26.653Z,14.45
2023-04-24T23:22:53.236Z,12.05
2023-04-24T23:25:19.908Z,10.27
2023-04-24T23:27:46.476Z,10.88
2023-04-24T23:30:13.063Z,8.85
2023-04-24T23:32:39.914Z,8.35
2023-04-24T23:35:06.846Z,13.95
2023-04-24T23:37:33.476Z,8.90
2023-04-24T23:40:00.461Z,11.93
2023-04-24T23:42:26.985Z,9.15
2023-04-24T23:44:53.562Z,8.60
2023-04-24T23:47:20.166Z,9.23
2023-04-24T23:49:47.010Z,16.98
2023-04-24T23:52:13.639Z,7.88
2023-04-24T23:54:40.227Z,11.25
2023-04-24T23:57:06.854Z,13.13
2023-04-24T23:59:33.499Z,9.73
